createdAt,value
2023-04-01T00:01:17.588Z,98635.28
2023-04-01T00:03:46.363Z,98628.33
2023-04-01T00:06:17.293Z,98618.08
2023-04-01T00:08:46.515Z,98614.60
2023-04-01T00:11:16.074Z,98610.75
2023-04-01T00:13:45.006Z,98605.88
2023-04-01T00:16:21.610Z,98603.20
2023-04-01T00:18:51.767Z,98606.79
2023-04-01T00:21:21.571Z,98614.86
2023-04-01T00:23:51.674Z,98613.92
2023-04-01T00:26:23.070Z,98615.17
2023-04-01T00:28:52.083Z,98612.35
2023-04-01T00:31:20.953Z,98613.62
2023-04-01T00:33:50.273Z,98609.25
2023-04-01T00:36:21.177Z,98608.15
2023-04-01T00:38:50.744Z,98604.83
2023-04-01T00:41:20.472Z,98599.79
2023-04-01T00:43:51.932Z,98599.84
2023-04-01T00:46:20.920Z,98597.77
2023-04-01T00:48:55.070Z,98601.89
2023-04-01T00:51:26.886Z,98599.68
2023-04-01T00:53:57.937Z,98596.83
2023-04-01T00:56:33.449Z,98588.23
2023-04-01T00:59:12.986Z,98594.25
2023-04-01T01:01:41.611Z,98595.51
2023-04-01T01:04:28.776Z,98592.91
2023-04-01T01:07:33.973Z,98591.73
2023-04-01T01:10:16.998Z,98593.48
2023-04-01T01:13:03.834Z,98595.36
2023-04-01T01:15:54.201Z,98588.09
2023-04-01T01:18:48.827Z,98590.63
2023-04-01T01:21:21.192Z,98591.88
2023-04-01T01:24:04.416Z,98593.10
2023-04-01T01:26:44.002Z,98590.98
2023-04-01T01:29:33.705Z,98592.08
2023-04-01T01:32:33.813Z,98594.70
2023-04-01T01:35:20.670Z,98595.09
2023-04-01T01:37:54.145Z,98600.45
2023-04-01T01:40:23.435Z,98598.14
2023-04-01T01:42:55.970Z,98602.17
2023-04-01T01:45:27.217Z,98590.20
2023-04-01T01:47:59.212Z,98601.70
2023-04-01T01:50:28.687Z,98600.20
2023-04-01T01:53:10.078Z,98596.23
2023-04-01T01:55:41.360Z,98598.97
2023-04-01T01:58:25.012Z,98595.40
2023-04-01T02:01:04.055Z,98594.81
2023-04-01T02:03:37.570Z,98588.35
2023-04-01T02:06:10.534Z,98586.73
2023-04-01T02:08:53.250Z,98583.59
2023-04-01T02:11:34.135Z,98584.91
2023-04-01T02:14:15.016Z,98582.85
2023-04-01T02:17:05.763Z,98583.75
2023-04-01T02:19:39.469Z,98581.04
2023-04-01T02:22:12.749Z,98579.62
2023-04-01T02:24:42.684Z,98577.95
2023-04-01T02:27:11.633Z,98576.77
2023-04-01T02:29:40.435Z,98578.70
2023-04-01T02:32:11.136Z,98573.13
2023-04-01T02:34:40.280Z,98571.10
2023-04-01T02:37:08.456Z,98565.55
2023-04-01T02:39:36.711Z,98568.11
2023-04-01T02:42:04.979Z,98570.25
2023-04-01T02:44:33.128Z,98574.40
2023-04-01T02:47:02.131Z,98578.67
2023-04-01T02:49:30.451Z,98579.26
2023-04-01T02:51:58.525Z,98578.59
2023-04-01T02:54:26.737Z,98577.58
2023-04-01T02:56:54.871Z,98574.78
2023-04-01T02:59:23.417Z,98578.52
2023-04-01T03:01:51.626Z,98580.39
2023-04-01T03:04:20.544Z,98582.17
2023-04-01T03:06:48.643Z,98579.02
2023-04-01T03:09:17.230Z,98587.83
2023-04-01T03:11:45.463Z,98586.34
2023-04-01T03:14:13.420Z,98589.55
2023-04-01T03:16:41.847Z,98589.69
2023-04-01T03:19:10.134Z,98591.14
2023-04-01T03:21:38.312Z,98596.57
2023-04-01T03:24:07.429Z,98598.77
2023-04-01T03:26:35.752Z,98600.73
2023-04-01T03:29:03.919Z,98598.17
2023-04-01T03:31:32.087Z,98601.15
2023-04-01T03:34:00.566Z,98602.23
2023-04-01T03:36:29.172Z,98601.27
2023-04-01T03:38:57.283Z,98603.98
2023-04-01T03:41:29.187Z,98604.18
2023-04-01T03:43:57.266Z,98602.06
2023-04-01T03:46:25.407Z,98607.95
2023-04-01T03:48:53.568Z,98606.85
2023-04-01T03:51:21.881Z,98608.44
2023-04-01T03:53:50.560Z,98610.36
2023-04-01T03:56:18.692Z,98608.86
2023-04-01T03:58:47.100Z,98614.39
2023-04-01T04:01:23.611Z,98616.90
2023-04-01T04:03:54.408Z,98616.56
2023-04-01T04:06:24.376Z,98621.05
2023-04-01T04:08:53.204Z,98624.38
2023-04-01T04:11:22.943Z,98626.74
2023-04-01T04:13:53.495Z,98632.77
2023-04-01T04:16:22.415Z,98634.57
2023-04-01T04:18:56.239Z,98633.80
2023-04-01T04:21:25.146Z,98635.05
2023-04-01T04:23:53.385Z,98636.54
2023-04-01T04:26:22.084Z,98628.34
2023-04-01T04:29:00.938Z,98645.25
2023-04-01T04:31:30.024Z,98648.61
2023-04-01T04:34:02.433Z,98646.77
2023-04-01T04:36:32.830Z,98646.88
2023-04-01T04:39:04.330Z,98647.79
2023-04-01T04:41:34.860Z,98649.92
2023-04-01T04:44:06.047Z,98649.75
2023-04-01T04:46:34.332Z,98649.58
2023-04-01T04:49:12.500Z,98654.02
2023-04-01T04:51:40.867Z,98656.05
2023-04-01T04:54:09.857Z,98655.46
2023-04-01T04:56:54.181Z,98650.91
2023-04-01T04:59:22.995Z,98653.22
2023-04-01T05:02:10.007Z,98656.23
2023-04-01T05:04:38.356Z,98653.10
2023-04-01T05:07:08.028Z,98657.49
2023-04-01T05:09:36.319Z,98659.36
2023-04-01T05:12:04.766Z,98657.88
2023-04-01T05:14:52.114Z,98654.59
2023-04-01T05:17:20.271Z,98657.14
2023-04-01T05:19:48.362Z,98658.00
2023-04-01T05:22:16.703Z,98662.40
2023-04-01T05:24:44.922Z,98660.40
2023-04-01T05:27:13.153Z,98665.15
2023-04-01T05:29:42.652Z,98661.12
2023-04-01T05:32:17.752Z,98657.42
2023-04-01T05:34:46.358Z,98658.25
2023-04-01T05:37:14.575Z,98656.96
2023-04-01T05:39:43.258Z,98658.48
2023-04-01T05:42:13.479Z,98657.06
2023-04-01T05:44:41.762Z,98646.27
2023-04-01T05:47:09.856Z,98659.23
2023-04-01T05:49:38.133Z,98658.77
2023-04-01T05:52:06.554Z,98662.73
2023-04-01T05:54:36.363Z,98660.92
2023-04-01T05:57:04.671Z,98660.66
2023-04-01T05:59:32.870Z,98664.77
2023-04-01T06:02:00.972Z,98665.67
2023-04-01T06:04:37.429Z,98660.92
2023-04-01T06:07:19.104Z,98666.99
2023-04-01T06:09:47.506Z,98670.34
2023-04-01T06:12:57.370Z,98667.32
2023-04-01T06:15:38.961Z,98671.41
2023-04-01T06:18:33.395Z,98673.36
2023-04-01T06:21:33.440Z,98670.81
2023-04-01T06:24:07.736Z,98676.96
2023-04-01T06:26:48.262Z,98673.46
2023-04-01T06:29:28.398Z,98677.02
2023-04-01T06:32:40.225Z,98677.34
2023-04-01T06:35:11.912Z,98681.13
2023-04-01T06:38:04.042Z,98679.19
2023-04-01T06:40:50.490Z,98679.61
2023-04-01T06:43:30.910Z,98684.20
2023-04-01T06:46:55.899Z,98684.90
2023-04-01T06:49:51.863Z,98684.63
2023-04-01T06:52:51.854Z,98686.95
2023-04-01T06:55:49.193Z,98689.50
2023-04-01T06:58:47.478Z,98685.36
2023-04-01T07:01:24.003Z,98686.29
2023-04-01T07:04:03.096Z,98685.56
2023-04-01T07:06:46.464Z,98686.92
2023-04-01T07:09:22.998Z,98689.05
2023-04-01T07:12:38.055Z,98694.78
2023-04-01T07:15:48.636Z,98690.73
2023-04-01T07:18:33.633Z,98692.17
2023-04-01T07:21:38.553Z,98693.09
2023-04-01T07:24:25.736Z,98689.54
2023-04-01T07:27:09.977Z,98689.94
2023-04-01T07:29:39.629Z,98692.07
2023-04-01T07:32:13.555Z,98692.93
2023-04-01T07:35:03.804Z,98692.20
2023-04-01T07:37:46.656Z,98692.04
2023-04-01T07:40:36.783Z,98695.29
2023-04-01T07:43:23.745Z,98695.19
2023-04-01T07:45:59.779Z,98695.70
2023-04-01T07:48:32.401Z,98693.88
2023-04-01T07:51:32.937Z,98694.71
2023-04-01T07:54:07.906Z,98697.96
2023-04-01T07:56:50.609Z,98698.52
2023-04-01T07:59:53.080Z,98697.63
2023-04-01T08:02:46.430Z,98699.21
2023-04-01T08:05:30.455Z,98704.15
2023-04-01T08:08:21.293Z,98705.23
2023-04-01T08:11:27.205Z,98706.92
2023-04-01T08:15:05.581Z,98710.20
2023-04-01T08:18:13.535Z,98709.48
2023-04-01T08:20:52.224Z,98710.36
2023-04-01T08:23:31.578Z,98710.77
2023-04-01T08:26:12.957Z,98714.71
2023-04-01T08:29:06.123Z,98712.52
2023-04-01T08:32:20.965Z,98714.61
2023-04-01T08:35:03.147Z,98718.91
2023-04-01T08:37:58.809Z,98719.42
2023-04-01T08:41:11.447Z,98718.66
2023-04-01T08:44:15.583Z,98724.95
2023-04-01T08:47:15.022Z,98725.20
2023-04-01T08:54:08.470Z,98729.42
2023-04-01T08:56:45.222Z,98734.00
2023-04-01T08:59:36.242Z,98738.73
2023-04-01T09:02:30.284Z,98739.11
2023-04-01T09:06:19.119Z,98738.10
2023-04-01T09:09:28.657Z,98742.31
2023-04-01T09:12:10.111Z,98743.65
2023-04-01T09:14:59.109Z,98743.50
2023-04-01T09:17:44.891Z,98734.92
2023-04-01T09:20:59.907Z,98746.70
2023-04-01T09:23:42.055Z,98742.11
2023-04-01T09:26:38.434Z,98745.70
2023-04-01T09:29:25.478Z,98745.36
2023-04-01T09:32:15.685Z,98746.27
2023-04-01T09:35:51.594Z,98753.16
2023-04-01T09:38:31.409Z,98751.31
2023-04-01T09:41:08.293Z,98751.52
2023-04-01T09:44:03.471Z,98750.38
2023-04-01T09:46:57.631Z,98748.38
2023-04-01T09:50:21.850Z,98753.00
2023-04-01T09:53:42.133Z,98749.30
2023-04-01T09:56:36.018Z,98742.69
2023-04-01T09:59:27.580Z,98748.94
2023-04-01T10:02:48.019Z,98751.58
2023-04-01T10:05:50.088Z,98751.85
2023-04-01T10:08:39.274Z,98758.61
2023-04-01T10:11:23.083Z,98757.13
2023-04-01T10:14:37.925Z,98761.27
2023-04-01T10:17:47.666Z,98760.94
2023-04-01T10:21:01.539Z,98764.73
2023-04-01T10:24:21.289Z,98748.51
2023-04-01T10:28:16.492Z,98756.02
2023-04-01T10:31:35.585Z,98758.45
2023-04-01T10:34:57.325Z,98760.70
2023-04-01T10:38:37.969Z,98757.88
2023-04-01T10:42:05.663Z,98763.67
2023-04-01T10:45:18.817Z,98762.79
2023-04-01T10:48:23.174Z,98757.91
2023-04-01T10:51:11.997Z,98755.33
2023-04-01T10:54:19.957Z,98756.73
2023-04-01T10:58:00.137Z,98746.34
2023-04-01T11:00:48.330Z,98761.25
2023-04-01T11:04:20.196Z,98742.96
2023-04-01T11:08:05.225Z,98763.17
2023-04-01T11:10:50.830Z,98767.63
2023-04-01T11:14:04.078Z,98770.64
2023-04-01T11:16:49.704Z,98771.19
2023-04-01T11:19:39.794Z,98770.14
2023-04-01T11:22:24.288Z,98774.35
2023-04-01T11:25:23.736Z,98771.44
2023-04-01T11:28:42.250Z,98761.86
2023-04-01T11:31:43.492Z,98770.80
2023-04-01T11:34:36.226Z,98747.12
2023-04-01T11:37:39.953Z,98774.95
2023-04-01T11:40:49.710Z,98769.75
2023-04-01T11:43:57.516Z,98771.61
2023-04-01T11:46:43.845Z,98772.02
2023-04-01T11:49:46.873Z,98773.67
2023-04-01T11:52:32.937Z,98772.99
2023-04-01T11:55:44.373Z,98776.11
2023-04-01T11:58:37.879Z,98778.48
2023-04-01T12:01:36.205Z,98771.66
2023-04-01T12:04:08.054Z,98780.30
2023-04-01T12:06:46.793Z,98779.58
2023-04-01T12:09:51.536Z,98779.78
2023-04-01T12:14:08.136Z,98778.95
2023-04-01T12:18:01.293Z,98778.35
2023-04-01T12:20:49.413Z,98781.29
2023-04-01T12:23:49.062Z,98777.13
2023-04-01T12:26:27.134Z,98783.48
2023-04-01T12:29:23.472Z,98778.63
2023-04-01T12:32:20.307Z,98782.69
2023-04-01T12:35:39.749Z,98783.14
2023-04-01T12:38:49.304Z,98778.59
2023-04-01T12:41:52.480Z,98780.83
2023-04-01T12:44:28.115Z,98783.38
2023-04-01T12:50:39.110Z,98781.25
2023-04-01T12:53:51.590Z,98778.27
2023-04-01T12:56:48.742Z,98781.21
2023-04-01T12:59:32.651Z,98784.53
2023-04-01T13:02:54.905Z,98783.71
2023-04-01T13:06:02.306Z,98784.52
2023-04-01T13:12:55.156Z,98790.67
2023-04-01T13:16:02.263Z,98792.02
2023-04-01T13:19:20.125Z,98753.80
2023-04-01T13:22:15.055Z,98802.48
2023-04-01T13:27:57.871Z,98807.79
2023-04-01T13:31:01.539Z,98810.11
2023-04-01T13:33:38.709Z,98811.61
2023-04-01T13:41:13.020Z,98815.92
2023-04-01T13:44:17.997Z,98824.24
2023-04-01T13:50:51.514Z,98832.35
2023-04-01T13:54:04.700Z,98838.25
2023-04-01T13:57:10.051Z,98846.97
2023-04-01T14:00:18.187Z,98852.83
2023-04-01T14:03:12.316Z,98863.13
2023-04-01T14:06:16.426Z,98863.39
2023-04-01T14:09:21.785Z,98869.98
2023-04-01T14:12:39.941Z,98873.70
2023-04-01T14:15:48.795Z,98872.65
2023-04-01T14:18:40.717Z,98870.76
2023-04-01T14:21:35.512Z,98875.67
2023-04-01T14:25:43.370Z,98880.71
2023-04-01T14:28:20.962Z,98884.33
2023-04-01T14:31:14.159Z,98887.39
2023-04-01T14:34:06.373Z,98883.75
2023-04-01T14:37:27.553Z,98889.84
2023-04-01T14:40:55.308Z,98886.89
2023-04-01T14:44:04.597Z,98894.82
2023-04-01T14:47:26.216Z,98902.27
2023-04-01T14:50:50.734Z,98903.78
2023-04-01T14:54:15.442Z,98907.61
2023-04-01T14:57:23.436Z,98911.52
2023-04-01T15:00:05.749Z,98916.79
2023-04-01T15:03:11.619Z,98916.80
2023-04-01T15:05:51.722Z,98923.06
2023-04-01T15:08:59.663Z,98932.45
2023-04-01T15:11:36.884Z,98937.57
2023-04-01T15:14:23.254Z,98940.83
2023-04-01T15:17:16.504Z,98946.35
2023-04-01T15:20:23.082Z,98951.35
2023-04-01T15:23:19.821Z,98949.79
2023-04-01T15:26:48.249Z,98957.96
2023-04-01T15:29:42.201Z,98964.98
2023-04-01T15:32:40.246Z,98965.82
2023-04-01T15:35:29.818Z,98973.38
2023-04-01T15:38:40.360Z,98979.07
2023-04-01T15:41:18.115Z,98979.45
2023-04-01T15:43:50.704Z,98985.46
2023-04-01T15:46:40.685Z,98984.38
2023-04-01T15:49:21.105Z,98985.52
2023-04-01T15:52:37.008Z,98991.91
2023-04-01T15:55:27.549Z,98996.17
2023-04-01T15:58:21.100Z,99001.45
2023-04-01T16:01:32.795Z,99004.70
2023-04-01T16:04:29.638Z,99011.17
2023-04-01T16:07:22.356Z,99016.34
2023-04-01T16:10:28.548Z,99024.52
2023-04-01T16:13:08.913Z,99032.59
2023-04-01T16:16:28.732Z,99036.17
2023-04-01T16:19:20.613Z,99032.34
2023-04-01T16:22:02.731Z,99044.30
2023-04-01T16:24:42.921Z,99043.81
2023-04-01T16:30:49.109Z,99048.77
2023-04-01T16:33:51.705Z,99054.74
2023-04-01T16:36:29.778Z,99057.37
2023-04-01T16:39:26.385Z,99066.16
2023-04-01T16:42:16.259Z,99071.13
2023-04-01T16:45:29.507Z,99074.63
2023-04-01T16:48:51.465Z,99077.95
2023-04-01T16:51:25.536Z,99084.38
2023-04-01T16:54:20.667Z,99087.96
2023-04-01T16:57:17.892Z,99095.39
2023-04-01T17:00:21.749Z,99101.86
2023-04-01T17:03:13.170Z,99114.98
2023-04-01T17:06:18.130Z,99119.14
2023-04-01T17:08:49.466Z,99125.10
2023-04-01T17:19:03.753Z,99142.64
2023-04-01T17:22:03.478Z,99148.32
2023-04-01T17:25:38.650Z,99151.39
2023-04-01T17:28:55.178Z,99157.89
2023-04-01T17:31:51.713Z,99147.27
2023-04-01T17:34:44.605Z,99162.52
2023-04-01T17:38:04.785Z,99172.55
2023-04-01T17:41:17.985Z,99177.08
2023-04-01T17:44:41.739Z,99178.52
2023-04-01T17:47:37.423Z,99174.64
2023-04-01T17:51:17.940Z,99196.65
2023-04-01T17:54:04.011Z,99203.41
2023-04-01T17:57:18.332Z,99204.52
2023-04-01T18:00:42.225Z,99209.06
2023-04-01T18:03:19.106Z,99219.33
2023-04-01T18:06:06.850Z,99220.85
2023-04-01T18:09:26.757Z,99205.77
2023-04-01T18:13:13.584Z,99230.40
2023-04-01T18:16:57.776Z,99238.92
2023-04-01T18:20:03.823Z,99244.52
2023-04-01T18:23:10.778Z,99248.84
2023-04-01T18:25:54.358Z,99250.98
2023-04-01T18:28:49.293Z,99241.46
2023-04-01T18:31:27.260Z,99261.38
2023-04-01T18:34:52.101Z,99263.65
2023-04-01T18:38:17.479Z,99267.83
2023-04-01T18:41:01.495Z,99276.21
2023-04-01T18:43:48.381Z,99281.59
2023-04-01T18:46:52.712Z,99287.70
2023-04-01T18:50:49.769Z,99290.93
2023-04-01T18:54:15.291Z,99292.01
2023-04-01T18:59:46.495Z,99296.91
2023-04-01T19:02:34.755Z,99300.41
2023-04-01T19:05:26.781Z,99309.66
2023-04-01T19:08:30.620Z,99310.27
2023-04-01T19:11:30.827Z,99314.56
2023-04-01T19:14:47.730Z,99319.81
2023-04-01T19:18:37.458Z,99325.13
2023-04-01T19:25:34.642Z,99334.61
2023-04-01T19:29:41.397Z,99340.04
2023-04-01T19:32:56.692Z,99343.78
2023-04-01T19:36:37.893Z,99346.62
2023-04-01T19:39:58.563Z,99354.80
2023-04-01T19:43:59.497Z,99361.02
2023-04-01T19:47:18.083Z,99370.06
2023-04-01T19:50:36.878Z,99374.79
2023-04-01T19:54:47.289Z,99378.40
2023-04-01T19:58:04.797Z,99379.23
2023-04-01T20:00:50.464Z,99385.93
2023-04-01T20:03:48.102Z,99389.44
2023-04-01T20:06:28.619Z,99392.07
2023-04-01T20:09:41.743Z,99391.10
2023-04-01T20:31:06.696Z,99403.96
2023-04-01T20:33:55.156Z,99404.27
2023-04-01T20:36:42.667Z,99406.69
2023-04-01T20:39:32.939Z,99414.73
2023-04-01T20:42:06.641Z,99415.30
2023-04-01T20:45:24.865Z,99420.51
2023-04-01T20:48:27.620Z,99425.35
2023-04-01T20:51:54.517Z,99433.77
2023-04-01T20:55:03.513Z,99435.85
2023-04-01T20:58:05.055Z,99437.35
2023-04-01T21:01:07.807Z,99445.64
2023-04-01T21:03:50.056Z,99446.19
2023-04-01T21:06:58.278Z,99451.98
2023-04-01T21:10:14.333Z,99455.92
2023-04-01T21:12:48.591Z,99461.21
2023-04-01T21:15:30.070Z,99463.65
2023-04-01T21:18:27.287Z,99468.61
2023-04-01T21:21:37.060Z,99470.89
2023-04-01T21:24:43.795Z,99469.70
2023-04-01T21:27:25.110Z,99475.32
2023-04-01T21:30:17.463Z,99478.91
2023-04-01T21:33:03.428Z,99466.20
2023-04-01T21:35:51.183Z,99485.38
2023-04-01T21:38:42.137Z,99481.94
2023-04-01T21:41:27.287Z,99488.72
2023-04-01T21:44:43.269Z,99490.29
2023-04-01T21:47:42.395Z,99493.92
2023-04-01T21:50:37.365Z,99497.59
2023-04-01T21:53:21.364Z,99501.38
2023-04-01T21:55:52.607Z,99506.92
2023-04-01T21:58:39.504Z,99506.64
2023-04-01T22:01:37.150Z,99509.94
2023-04-01T22:04:28.104Z,99510.78
2023-04-01T22:07:01.427Z,99513.52
2023-04-01T22:09:41.010Z,99512.44
2023-04-01T22:12:19.261Z,99514.87
2023-04-01T22:15:05.434Z,99518.79
2023-04-01T22:17:42.881Z,99522.98
2023-04-01T22:20:21.661Z,99524.54
2023-04-01T22:23:08.449Z,99530.55
2023-04-01T22:26:08.739Z,99535.39
2023-04-01T22:28:55.260Z,99540.38
2023-04-01T22:31:30.104Z,99539.06
2023-04-01T22:34:10.481Z,99543.17
2023-04-01T22:36:55.248Z,99548.21
2023-04-01T22:39:28.565Z,99552.59
2023-04-01T22:42:18.619Z,99552.08
2023-04-01T22:44:58.257Z,99559.04
2023-04-01T22:47:48.726Z,99561.27
2023-04-01T22:50:24.034Z,99559.51
2023-04-01T22:53:07.514Z,99562.48
2023-04-01T22:55:39.616Z,99567.73
2023-04-01T22:58:39.678Z,99568.21
2023-04-01T23:01:14.468Z,99569.56
2023-04-01T23:03:45.598Z,99573.14
2023-04-01T23:06:19.961Z,99572.94
2023-04-01T23:09:04.075Z,99576.08
2023-04-01T23:11:56.685Z,99575.05
2023-04-01T23:14:24.845Z,99579.70
2023-04-01T23:17:05.424Z,99582.41
2023-04-01T23:19:51.267Z,99584.16
2023-04-01T23:22:39.445Z,99581.72
2023-04-01T23:25:22.659Z,99582.83
2023-04-01T23:28:12.630Z,99589.29
2023-04-01T23:30:40.663Z,99589.72
2023-04-01T23:33:20.932Z,99595.49
2023-04-01T23:36:07.569Z,99592.45
2023-04-01T23:38:39.190Z,99594.98
2023-04-01T23:41:07.736Z,99599.38
2023-04-01T23:43:40.069Z,99601.46
2023-04-01T23:46:08.793Z,99603.77
2023-04-01T23:48:40.456Z,99610.11
2023-04-01T23:51:22.540Z,99613.35
2023-04-01T23:54:18.529Z,99616.73
2023-04-01T23:56:53.623Z,99616.09
2023-04-01T23:59:40.401Z,99615.45
